Time;durP1;ratioP1;P1;durP2;ratioP2;P2;SDS_P1;SDS_P2;PMS_P1;PMS_P2;Temp;Humidity;BMP_temperature;BMP_pressure;BME280_temperature;BME280_humidity;BME280_pressure;Samples;Min_cycle;Max_cycle;Signal;HPM_P1;HPM_P2
2024/01/02 00:00:07;;;;;;;8.13;2.92;;;;;;;6.61;72.29;97566.00;4950782;29;20070;-76
2024/01/02 00:02:37;;;;;;;11.30;3.40;;;;;;;6.63;73.82;97575.44;4931608;28;20098;-72
2024/01/02 00:05:03;;;;;;;9.70;3.72;;;;;;;6.56;73.46;97569.41;4921029;29;20035;-72
2024/01/02 00:07:28;;;;;;;8.85;2.92;;;;;;;6.62;73.32;97563.13;4927386;29;20495;-72
2024/01/02 00:09:53;;;;;;;7.97;2.63;;;;;;;6.64;73.22;97553.00;4915669;29;20038;-72
2024/01/02 00:12:19;;;;;;;8.93;2.80;;;;;;;6.52;72.79;97521.94;4919226;28;20035;-72
2024/01/02 00:14:44;;;;;;;8.25;2.90;;;;;;;6.61;72.93;97528.56;4953700;29;20035;-71
2024/01/02 00:17:10;;;;;;;7.90;2.85;;;;;;;6.70;73.28;97544.03;4907891;29;20028;-72
2024/01/02 00:19:35;;;;;;;7.10;2.97;;;;;;;6.57;72.91;97514.84;4928936;29;20051;-72
2024/01/02 00:22:00;;;;;;;8.30;3.10;;;;;;;6.66;73.56;97526.00;4922699;29;20031;-71
2024/01/02 00:24:26;;;;;;;9.48;2.83;;;;;;;6.71;72.94;97524.25;4920117;29;20058;-72
2024/01/02 00:26:51;;;;;;;7.95;3.53;;;;;;;6.67;73.94;97515.09;4931876;29;20023;-72
2024/01/02 00:29:16;;;;;;;9.77;3.08;;;;;;;6.59;73.95;97515.44;4925167;29;20043;-72
2024/01/02 00:31:44;;;;;;;12.15;4.05;;;;;;;6.50;74.19;97506.16;4916186;29;20078;-72
2024/01/02 00:34:11;;;;;;;10.73;3.25;;;;;;;6.61;73.87;97518.69;4949278;28;20388;-72
2024/01/02 00:36:36;;;;;;;9.48;3.40;;;;;;;6.52;74.25;97506.72;4937888;29;20035;-74
2024/01/02 00:39:02;;;;;;;7.82;3.33;;;;;;;6.60;74.57;97514.41;4909556;29;20162;-72
2024/01/02 00:41:28;;;;;;;12.43;3.30;;;;;;;6.60;74.99;97510.91;4933952;29;20034;-72
2024/01/02 00:43:53;;;;;;;10.05;3.15;;;;;;;6.56;75.12;97505.19;4948802;28;20046;-72
2024/01/02 00:46:18;;;;;;;8.18;3.20;;;;;;;6.56;74.69;97513.22;4938673;29;20027;-73
2024/01/02 00:48:44;;;;;;;9.27;3.10;;;;;;;6.44;76.00;97501.72;4925463;29;20130;-72
2024/01/02 00:51:11;;;;;;;9.55;2.90;;;;;;;6.53;75.73;97505.69;4936312;29;20064;-72
2024/01/02 00:53:36;;;;;;;7.30;2.90;;;;;;;6.33;75.72;97473.16;4913523;29;20035;-73
2024/01/02 00:56:02;;;;;;;9.50;3.10;;;;;;;6.32;76.11;97482.22;4944514;29;20046;-72
2024/01/02 00:58:27;;;;;;;8.90;3.30;;;;;;;6.26;76.93;97477.81;4920534;29;20411;-72
2024/01/02 01:00:53;;;;;;;9.90;3.10;;;;;;;6.41;76.98;97496.03;4945844;29;20472;-75
2024/01/02 01:03:18;;;;;;;9.52;3.30;;;;;;;6.38;77.12;97489.31;4932085;29;20098;-72
2024/01/02 01:05:43;;;;;;;9.57;3.20;;;;;;;6.38;76.99;97491.97;4936508;29;20468;-72
2024/01/02 01:08:09;;;;;;;10.45;3.08;;;;;;;6.26;77.15;97464.44;4933922;29;20050;-72
2024/01/02 01:10:34;;;;;;;10.68;3.53;;;;;;;6.35;77.62;97481.75;4930408;29;20023;-72
2024/01/02 01:13:00;;;;;;;11.90;3.20;;;;;;;6.37;77.49;97482.31;4936249;29;20035;-72
2024/01/02 01:15:25;;;;;;;10.35;3.42;;;;;;;6.19;77.01;97466.41;4952208;29;20031;-74
2024/01/02 01:17:50;;;;;;;9.73;3.17;;;;;;;6.28;78.23;97481.06;4931445;29;20042;-72
2024/01/02 01:20:16;;;;;;;6.88;3.10;;;;;;;6.19;77.89;97466.41;4919862;29;20078;-72
2024/01/02 01:22:42;;;;;;;7.80;2.88;;;;;;;6.31;78.07;97485.94;4936531;29;20031;-72
2024/01/02 01:25:07;;;;;;;10.00;3.47;;;;;;;6.18;77.53;97456.78;4936953;29;20488;-72
2024/01/02 01:27:33;;;;;;;8.38;3.05;;;;;;;6.11;77.96;97450.75;4924014;29;20031;-72
2024/01/02 01:29:58;;;;;;;7.63;3.08;;;;;;;6.28;78.29;97467.69;4945189;29;20472;-73
2024/01/02 01:32:23;;;;;;;6.97;3.05;;;;;;;6.18;78.91;97454.13;4948401;28;20036;-72
2024/01/02 01:34:49;;;;;;;7.90;3.15;;;;;;;6.25;78.32;97452.13;4955604;29;20499;-72
2024/01/02 01:37:14;;;;;;;9.68;3.42;;;;;;;6.24;77.46;97447.81;4931932;29;20035;-72
2024/01/02 01:39:40;;;;;;;8.35;3.55;;;;;;;6.21;78.75;97442.94;4952426;29;20550;-72
2024/01/02 01:42:05;;;;;;;10.80;3.20;;;;;;;6.11;78.80;97422.16;4931234;29;20039;-72
2024/01/02 01:44:30;;;;;;;8.10;2.88;;;;;;;6.21;77.92;97445.59;4936941;29;20046;-72
2024/01/02 01:46:56;;;;;;;8.75;3.28;;;;;;;6.15;78.37;97433.19;4933396;29;20383;-71
2024/01/02 01:49:22;;;;;;;9.07;3.05;;;;;;;6.17;77.54;97425.75;4930986;29;20027;-72
2024/01/02 01:51:48;;;;;;;11.48;3.63;;;;;;;6.20;78.21;97430.63;4924054;29;20058;-72
2024/01/02 01:54:14;;;;;;;10.05;3.15;;;;;;;6.17;78.24;97423.06;4939163;29;20551;-71
2024/01/02 01:56:42;;;;;;;7.90;3.35;;;;;;;6.16;77.86;97421.47;4939859;29;20125;-72
2024/01/02 01:59:07;;;;;;;6.47;2.72;;;;;;;6.24;77.40;97426.44;4923148;29;20020;-72
2024/01/02 02:01:33;;;;;;;8.93;3.15;;;;;;;6.25;77.42;97425.41;4917128;29;20090;-73
2024/01/02 02:04:00;;;;;;;9.77;3.10;;;;;;;6.25;77.04;97412.81;4919860;29;20043;-72
2024/01/02 02:06:25;;;;;;;9.88;4.00;;;;;;;6.08;77.31;97397.75;4930987;29;21301;-72
2024/01/02 02:08:51;;;;;;;10.52;3.35;;;;;;;6.27;77.57;97415.28;4931088;29;20023;-72
2024/01/02 02:11:16;;;;;;;7.55;2.95;;;;;;;6.16;77.39;97397.41;4930642;29;20031;-72
2024/01/02 02:13:43;;;;;;;10.20;2.92;;;;;;;6.06;77.31;97389.16;4955003;28;20043;-72
2024/01/02 02:16:08;;;;;;;6.18;2.67;;;;;;;6.23;77.10;97409.56;4940448;29;20049;-72
2024/01/02 02:18:33;;;;;;;9.38;2.83;;;;;;;6.22;77.65;97399.13;4955215;29;20476;-72
2024/01/02 02:20:59;;;;;;;11.02;3.15;;;;;;;6.20;77.93;97398.56;4956567;29;20043;-71
2024/01/02 02:23:24;;;;;;;7.00;2.72;;;;;;;6.19;77.36;97396.91;4922868;29;20055;-73
2024/01/02 02:25:50;;;;;;;7.65;2.95;;;;;;;6.09;77.85;97383.38;4938762;29;20130;-71
2024/01/02 02:28:15;;;;;;;5.05;2.75;;;;;;;6.09;77.68;97376.13;4923018;29;20059;-71
2024/01/02 02:30:40;;;;;;;9.68;2.75;;;;;;;6.22;78.02;97401.81;4923096;29;20035;-71
2024/01/02 02:33:06;;;;;;;9.05;2.97;;;;;;;6.10;77.99;97375.09;4922916;29;20035;-72
2024/01/02 02:35:31;;;;;;;9.18;3.33;;;;;;;6.01;77.67;97383.72;4922096;29;20035;-72
2024/01/02 02:37:57;;;;;;;8.18;2.90;;;;;;;6.14;78.70;97384.25;4938393;29;20395;-75
2024/01/02 02:40:23;;;;;;;10.27;3.10;;;;;;;6.14;78.54;97383.44;4922473;29;20101;-71
2024/01/02 02:42:48;;;;;;;9.13;3.30;;;;;;;6.00;78.02;97350.00;4955313;28;20411;-71
2024/01/02 02:45:14;;;;;;;7.28;2.97;;;;;;;6.12;78.01;97367.66;4921491;29;20039;-71
2024/01/02 02:47:39;;;;;;;9.13;2.92;;;;;;;6.10;79.23;97371.59;4939752;28;20051;-71
2024/01/02 02:50:06;;;;;;;6.95;2.92;;;;;;;6.13;78.09;97365.81;4930095;29;20480;-71
2024/01/02 02:52:32;;;;;;;6.97;3.40;;;;;;;6.07;78.65;97340.81;4934828;29;20055;-70
2024/01/02 02:54:58;;;;;;;9.43;3.10;;;;;;;6.09;78.78;97338.72;4952292;28;20035;-71
2024/01/02 02:57:24;;;;;;;6.43;3.08;;;;;;;6.04;78.61;97329.81;4933326;29;20122;-70
2024/01/02 02:59:50;;;;;;;9.05;2.83;;;;;;;6.09;79.06;97333.38;4957865;28;20131;-71
2024/01/02 03:02:16;;;;;;;9.30;3.10;;;;;;;6.04;79.08;97327.13;4919303;29;20022;-70
2024/01/02 03:04:42;;;;;;;7.40;2.88;;;;;;;6.08;79.17;97336.28;4920190;29;20027;-72
2024/01/02 03:07:07;;;;;;;9.80;2.92;;;;;;;5.98;79.67;97320.03;4939593;29;20499;-71
2024/01/02 03:09:33;;;;;;;10.85;3.40;;;;;;;6.04;78.41;97319.94;4908144;29;20123;-72
2024/01/02 03:11:58;;;;;;;7.53;3.22;;;;;;;5.94;79.47;97303.69;4931857;29;20043;-71
2024/01/02 03:14:23;;;;;;;6.80;2.70;;;;;;;6.05;79.60;97318.03;4921627;29;20337;-71
2024/01/02 03:16:49;;;;;;;8.60;3.05;;;;;;;6.04;79.50;97295.06;4911780;29;20111;-70
2024/01/02 03:19:15;;;;;;;10.77;3.28;;;;;;;6.01;79.77;97287.50;4918507;29;20476;-71
2024/01/02 03:21:40;;;;;;;7.78;3.25;;;;;;;6.06;79.04;97291.09;4919739;29;20115;-70
2024/01/02 03:24:06;;;;;;;8.13;2.80;;;;;;;6.06;79.99;97279.59;4933647;29;20043;-70
2024/01/02 03:26:31;;;;;;;7.85;3.08;;;;;;;6.04;79.52;97273.69;4931528;29;20024;-71
2024/01/02 03:28:56;;;;;;;9.15;2.92;;;;;;;6.04;79.73;97260.31;4940880;29;20031;-71
2024/01/02 03:31:22;;;;;;;8.05;2.65;;;;;;;6.07;79.97;97262.50;4907518;29;20019;-71
2024/01/02 03:33:47;;;;;;;5.97;2.60;;;;;;;5.95;80.18;97240.38;4902332;29;20411;-71
2024/01/02 03:36:17;;;;;;;6.80;3.15;;;;;;;5.94;80.90;97238.75;4934027;29;20218;-70
2024/01/02 03:38:42;;;;;;;7.78;3.15;;;;;;;5.94;80.68;97228.06;4913967;29;20415;-71
2024/01/02 03:41:08;;;;;;;5.57;2.80;;;;;;;5.89;80.97;97214.59;4917982;29;20039;-71
2024/01/02 03:43:34;;;;;;;8.35;2.70;;;;;;;5.96;80.67;97223.28;4934849;29;20054;-71
2024/01/02 03:45:59;;;;;;;8.38;2.90;;;;;;;5.86;81.57;97205.19;4917460;29;20032;-71
2024/01/02 03:48:25;;;;;;;7.32;3.10;;;;;;;5.91;82.27;97221.31;4901438;29;20040;-70
2024/01/02 03:50:50;;;;;;;9.85;3.35;;;;;;;5.92;81.80;97214.13;4902760;29;20087;-71
2024/01/02 03:53:15;;;;;;;9.13;3.22;;;;;;;5.94;81.86;97217.38;4934318;29;20075;-71
2024/01/02 03:55:41;;;;;;;9.68;2.88;;;;;;;5.83;82.47;97178.94;4934372;29;20488;-70
2024/01/02 03:58:06;;;;;;;8.27;3.30;;;;;;;5.86;83.08;97193.72;4914639;29;20084;-70
2024/01/02 04:00:33;;;;;;;9.48;3.05;;;;;;;5.84;83.11;97179.72;4917471;29;20107;-71
2024/01/02 04:02:58;;;;;;;5.88;2.65;;;;;;;5.82;82.95;97176.47;4905696;29;20043;-71
2024/01/02 04:05:24;;;;;;;8.02;3.25;;;;;;;5.83;82.67;97178.13;4933449;29;20027;-71
2024/01/02 04:07:49;;;;;;;9.02;2.78;;;;;;;5.71;83.36;97151.47;4933615;29;20039;-71
2024/01/02 04:10:15;;;;;;;9.52;3.50;;;;;;;5.72;84.01;97155.72;4933313;29;20019;-71
2024/01/02 04:12:40;;;;;;;6.22;2.90;;;;;;;5.83;83.36;97167.44;4929584;29;20040;-71
2024/01/02 04:15:06;;;;;;;8.00;3.15;;;;;;;5.66;83.30;97134.53;4924628;29;20023;-70
2024/01/02 04:17:31;;;;;;;7.88;3.25;;;;;;;5.69;84.28;97150.06;4926478;29;20036;-70
2024/01/02 04:19:56;;;;;;;7.05;2.92;;;;;;;5.65;83.98;97138.25;4932098;29;20027;-70
2024/01/02 04:22:22;;;;;;;8.60;3.63;;;;;;;5.86;84.59;97156.31;4931653;29;20107;-71
2024/01/02 04:24:47;;;;;;;10.05;3.20;;;;;;;5.78;84.60;97148.63;4915788;29;20035;-70
2024/01/02 04:27:12;;;;;;;9.45;3.20;;;;;;;5.79;84.88;97144.94;4948622;29;20036;-70
2024/01/02 04:29:38;;;;;;;7.30;2.80;;;;;;;5.70;85.38;97136.47;4915841;29;20031;-70
2024/01/02 04:32:04;;;;;;;7.28;3.25;;;;;;;5.81;85.84;97143.63;4940137;29;20479;-70
2024/01/02 04:34:29;;;;;;;9.45;3.13;;;;;;;5.72;85.60;97122.91;4935419;28;20490;-70
2024/01/02 04:36:54;;;;;;;7.20;2.90;;;;;;;5.70;85.53;97114.28;4935299;29;20165;-71
2024/01/02 04:39:20;;;;;;;11.38;3.05;;;;;;;5.75;86.44;97117.06;4941184;29;20027;-71
2024/01/02 04:41:45;;;;;;;8.07;3.13;;;;;;;5.74;86.26;97110.09;4943584;29;20559;-71
2024/01/02 04:44:10;;;;;;;9.40;3.15;;;;;;;5.71;86.43;97090.03;4931667;28;20027;-71
2024/01/02 04:46:36;;;;;;;7.63;2.95;;;;;;;5.69;86.34;97085.97;4948719;29;20414;-71
2024/01/02 04:49:01;;;;;;;8.43;3.00;;;;;;;5.73;87.24;97076.44;4938007;29;20107;-71
2024/01/02 04:51:28;;;;;;;8.00;2.80;;;;;;;5.49;86.63;97025.81;4932661;29;20052;-71
2024/01/02 04:53:53;;;;;;;6.35;2.88;;;;;;;5.78;86.30;97053.28;4908869;29;20024;-71
2024/01/02 04:56:19;;;;;;;6.80;3.00;;;;;;;5.55;87.28;97022.16;4936320;29;20558;-71
2024/01/02 04:58:44;;;;;;;7.72;3.50;;;;;;;5.70;86.76;97043.00;4924893;29;20030;-71
2024/01/02 05:01:10;;;;;;;8.13;3.30;;;;;;;5.76;86.82;97034.03;4931809;29;20509;-70
2024/01/02 05:03:35;;;;;;;10.02;3.47;;;;;;;5.70;87.92;97028.81;4924786;29;20618;-70
2024/01/02 05:06:01;;;;;;;6.75;3.38;;;;;;;5.74;87.17;97029.97;4927659;29;20095;-71
2024/01/02 05:08:26;;;;;;;6.88;2.80;;;;;;;5.62;88.05;97010.53;4932544;29;20039;-71
2024/01/02 05:10:52;;;;;;;8.48;3.15;;;;;;;5.67;88.11;97010.63;4927983;29;20031;-71
2024/01/02 05:13:18;;;;;;;6.55;3.10;;;;;;;5.78;88.43;97020.41;4933438;29;20110;-71
2024/01/02 05:15:43;;;;;;;6.78;3.30;;;;;;;5.56;88.12;96975.75;4921568;29;20034;-72
2024/01/02 05:18:09;;;;;;;9.75;3.20;;;;;;;5.65;88.72;96978.03;4929577;29;20115;-71
2024/01/02 05:20:34;;;;;;;6.15;3.50;;;;;;;5.71;88.13;96995.72;4933622;29;20472;-70
2024/01/02 05:23:03;;;;;;;7.28;3.55;;;;;;;5.72;89.13;96981.34;4932201;29;20103;-70
2024/01/02 05:25:29;;;;;;;9.43;3.72;;;;;;;5.63;89.40;96975.56;4928589;29;20467;-70
2024/01/02 05:27:54;;;;;;;10.25;3.70;;;;;;;5.63;89.42;96953.41;4916603;29;20027;-71
2024/01/02 05:30:20;;;;;;;5.50;3.22;;;;;;;5.75;88.81;96962.13;4920467;29;20496;-71
2024/01/02 05:32:45;;;;;;;6.38;3.30;;;;;;;5.76;89.79;96947.75;4918144;29;20024;-71
2024/01/02 05:35:11;;;;;;;7.10;3.85;;;;;;;5.72;89.47;96947.41;4929512;29;20039;-71
2024/01/02 05:37:36;;;;;;;12.82;8.57;;;;;;;5.73;89.46;96932.19;4931585;29;20075;-72
2024/01/02 05:40:03;;;;;;;8.25;4.50;;;;;;;5.66;89.37;96904.84;4932583;29;20088;-73
2024/01/02 05:42:28;;;;;;;8.55;4.07;;;;;;;5.82;90.19;96920.03;4930762;29;20035;-73
2024/01/02 05:44:53;;;;;;;6.82;3.83;;;;;;;5.81;89.39;96913.09;4911402;29;20376;-73
2024/01/02 05:47:19;;;;;;;8.52;4.00;;;;;;;5.81;90.30;96921.09;4913485;29;20023;-73
2024/01/02 05:49:44;;;;;;;8.68;3.92;;;;;;;5.76;89.80;96899.66;4932422;29;20040;-73
2024/01/02 05:52:10;;;;;;;9.15;4.43;;;;;;;5.79;89.60;96888.50;4913597;29;20445;-72
2024/01/02 05:54:35;;;;;;;6.35;4.55;;;;;;;5.64;90.18;96872.25;4932155;29;20040;-73
2024/01/02 05:57:01;;;;;;;6.90;4.68;;;;;;;5.72;89.83;96882.53;4928248;29;20447;-72
2024/01/02 05:59:27;;;;;;;6.18;4.10;;;;;;;5.78;90.02;96895.69;4931724;29;20050;-72
2024/01/02 06:01:52;;;;;;;7.45;4.20;;;;;;;5.80;90.20;96901.59;4926995;29;20036;-72
2024/01/02 06:04:18;;;;;;;6.78;3.95;;;;;;;5.83;89.67;96895.78;4918892;29;20099;-70
2024/01/02 06:06:43;;;;;;;6.60;3.90;;;;;;;5.88;90.58;96898.50;4928867;29;20024;-70
2024/01/02 06:09:08;;;;;;;6.55;4.15;;;;;;;5.82;89.98;96893.31;4933670;29;20571;-71
2024/01/02 06:11:34;;;;;;;7.05;3.83;;;;;;;5.85;90.86;96882.19;4922885;29;20059;-70
2024/01/02 06:13:59;;;;;;;8.00;4.05;;;;;;;5.86;89.94;96879.25;4936302;29;20499;-71
2024/01/02 06:16:24;;;;;;;9.05;4.50;;;;;;;5.72;90.67;96856.59;4934757;29;20098;-70
2024/01/02 06:18:50;;;;;;;7.25;4.35;;;;;;;5.89;90.36;96878.78;4913985;29;20095;-71
2024/01/02 06:21:15;;;;;;;8.20;4.15;;;;;;;5.85;90.52;96876.84;4926690;29;20067;-71
2024/01/02 06:23:41;;;;;;;6.63;4.35;;;;;;;5.89;90.12;96880.63;4951414;28;20036;-70
2024/01/02 06:26:06;;;;;;;7.38;4.10;;;;;;;5.82;90.68;96869.28;4931028;29;20043;-70
2024/01/02 06:28:32;;;;;;;8.70;5.00;;;;;;;5.80;90.43;96869.53;4931766;29;20043;-70
2024/01/02 06:30:57;;;;;;;9.65;5.45;;;;;;;5.84;90.82;96853.81;4930549;29;20114;-70
2024/01/02 06:33:24;;;;;;;9.73;4.63;;;;;;;5.71;91.18;96844.31;4923114;29;20039;-71
2024/01/02 06:35:50;;;;;;;7.00;4.60;;;;;;;5.87;91.79;96858.69;4934153;29;20038;-71
2024/01/02 06:38:16;;;;;;;6.03;4.80;;;;;;;5.81;90.88;96863.13;4935077;29;20052;-71
2024/01/02 06:40:41;;;;;;;9.75;5.35;;;;;;;5.87;90.45;96856.03;4927002;29;20115;-71
2024/01/02 06:43:07;;;;;;;7.20;5.20;;;;;;;5.80;91.73;96855.38;4941115;28;20107;-71
2024/01/02 06:45:32;;;;;;;6.60;4.93;;;;;;;5.74;91.41;96837.66;4927925;29;20419;-70
2024/01/02 06:47:58;;;;;;;7.15;4.57;;;;;;;5.81;90.66;96848.97;4931989;29;20114;-71
2024/01/02 06:50:23;;;;;;;7.45;5.03;;;;;;;5.77;90.83;96839.81;4934313;29;20024;-74
2024/01/02 06:52:48;;;;;;;7.78;5.82;;;;;;;5.84;90.99;96843.13;4950282;28;20040;-70
2024/01/02 06:55:14;;;;;;;6.07;5.03;;;;;;;5.79;91.96;96845.75;4932105;29;20044;-71
2024/01/02 06:57:39;;;;;;;6.28;5.18;;;;;;;5.74;91.07;96841.13;4928846;29;20044;-73
2024/01/02 07:00:06;;;;;;;7.57;4.88;;;;;;;5.71;90.91;96835.47;4918793;29;20047;-73
2024/01/02 07:02:32;;;;;;;9.75;5.88;;;;;;;5.78;90.93;96828.09;4915281;29;20044;-69
2024/01/02 07:04:58;;;;;;;8.02;5.43;;;;;;;5.77;91.80;96837.16;4931044;29;20035;-69
2024/01/02 07:07:23;;;;;;;8.05;5.53;;;;;;;5.73;91.67;96841.38;4929211;29;20032;-69
2024/01/02 07:09:49;;;;;;;7.68;5.25;;;;;;;5.74;92.14;96843.78;4928627;29;20469;-69
2024/01/02 07:12:14;;;;;;;7.93;5.13;;;;;;;5.80;91.01;96839.34;4934085;29;20050;-69
2024/01/02 07:14:41;;;;;;;7.38;5.18;;;;;;;5.75;91.53;96840.09;4931059;29;20048;-70
2024/01/02 07:17:07;;;;;;;6.45;5.05;;;;;;;5.77;91.46;96831.81;4934473;29;20054;-69
2024/01/02 07:19:33;;;;;;;10.27;5.43;;;;;;;5.63;91.54;96814.53;4935540;29;20134;-70
2024/01/02 07:21:58;;;;;;;8.23;5.50;;;;;;;5.73;91.54;96838.72;4927142;29;20085;-69
2024/01/02 07:24:23;;;;;;;9.30;5.60;;;;;;;5.79;91.36;96827.06;4932671;29;20024;-69
2024/01/02 07:26:49;;;;;;;7.32;5.30;;;;;;;5.70;91.58;96794.59;4927731;29;20044;-69
2024/01/02 07:29:14;;;;;;;8.43;5.85;;;;;;;5.79;91.80;96808.34;4927287;29;20034;-69
2024/01/02 07:31:39;;;;;;;6.60;5.35;;;;;;;5.71;91.00;96782.06;4934983;29;20407;-73
2024/01/02 07:34:05;;;;;;;12.00;7.93;;;;;;;5.68;91.76;96790.56;4934212;28;20031;-69
2024/01/02 07:36:30;;;;;;;8.43;5.88;;;;;;;5.77;90.90;96794.41;4929664;29;20063;-69
2024/01/02 07:38:56;;;;;;;7.88;5.80;;;;;;;5.81;91.21;96784.88;4931538;29;20484;-70
2024/01/02 07:41:21;;;;;;;7.97;6.03;;;;;;;5.75;91.67;96764.47;4928446;29;20051;-69
2024/01/02 07:43:47;;;;;;;12.73;9.27;;;;;;;5.79;91.50;96777.09;4916317;29;20172;-69
2024/01/02 07:46:12;;;;;;;9.70;6.88;;;;;;;5.74;91.55;96778.91;4931771;29;20035;-69
2024/01/02 07:48:38;;;;;;;8.30;6.38;;;;;;;5.80;91.17;96777.91;4929610;29;20028;-70
2024/01/02 07:51:04;;;;;;;10.57;8.25;;;;;;;5.73;91.61;96766.59;4883447;29;20062;-69
2024/01/02 07:53:29;;;;;;;11.35;7.13;;;;;;;5.75;91.92;96775.16;4916222;29;20032;-69
2024/01/02 07:55:54;;;;;;;9.98;6.43;;;;;;;5.71;91.40;96763.38;4928971;29;20509;-69
2024/01/02 07:58:20;;;;;;;7.97;6.43;;;;;;;5.75;91.74;96791.19;4933370;29;20024;-69
2024/01/02 08:00:45;;;;;;;8.18;6.45;;;;;;;5.78;92.22;96785.38;4930791;29;20040;-70
2024/01/02 08:03:11;;;;;;;10.05;6.15;;;;;;;5.78;92.31;96780.03;4939980;28;20085;-69
2024/01/02 08:05:36;;;;;;;6.07;5.07;;;;;;;5.76;91.87;96766.13;4916271;29;20093;-69
2024/01/02 08:08:02;;;;;;;9.88;5.55;;;;;;;5.82;92.20;96759.75;4943611;29;20373;-69
2024/01/02 08:10:27;;;;;;;8.48;5.38;;;;;;;5.77;91.61;96741.81;4915351;29;20102;-69
2024/01/02 08:12:53;;;;;;;7.90;5.50;;;;;;;5.84;92.12;96760.31;4936790;29;20645;-71
2024/01/02 08:15:18;;;;;;;7.57;5.82;;;;;;;5.83;92.20;96761.38;4936342;29;20031;-69
2024/01/02 08:17:44;;;;;;;6.75;5.18;;;;;;;5.79;91.61;96749.59;4953552;29;20551;-70
2024/01/02 08:20:10;;;;;;;6.00;5.38;;;;;;;5.87;92.37;96746.50;4951586;29;20049;-69
2024/01/02 08:22:35;;;;;;;7.53;5.05;;;;;;;5.89;92.34;96750.53;4913149;29;20115;-68
2024/01/02 08:25:01;;;;;;;6.70;5.15;;;;;;;5.78;91.96;96732.75;4931384;29;20111;-70
2024/01/02 08:27:26;;;;;;;9.38;5.53;;;;;;;5.84;92.37;96737.13;4952046;29;20035;-69
2024/01/02 08:29:52;;;;;;;9.60;6.13;;;;;;;5.90;92.32;96754.84;4931593;29;20115;-70
2024/01/02 08:32:20;;;;;;;9.60;5.20;;;;;;;5.91;91.75;96743.06;4943507;28;20399;-69
2024/01/02 08:34:45;;;;;;;7.82;5.53;;;;;;;5.94;92.46;96736.44;4936158;29;20086;-69
2024/01/02 08:37:10;;;;;;;7.00;4.95;;;;;;;5.86;92.77;96728.88;4945128;29;20031;-70
2024/01/02 08:39:36;;;;;;;8.90;5.63;;;;;;;5.95;92.86;96732.72;4934527;29;20046;-70
2024/01/02 08:42:02;;;;;;;10.55;6.00;;;;;;;6.01;93.14;96737.03;4940674;29;20019;-69
2024/01/02 08:44:27;;;;;;;6.53;5.38;;;;;;;6.01;92.82;96743.19;4932829;29;20039;-70
2024/01/02 08:46:53;;;;;;;9.45;5.50;;;;;;;5.94;92.50;96721.22;4947138;29;20551;-71
2024/01/02 08:49:18;;;;;;;7.40;5.95;;;;;;;5.89;92.30;96709.66;4951294;29;20062;-70
2024/01/02 08:51:44;;;;;;;9.13;6.20;;;;;;;6.06;93.06;96737.91;4945102;28;20015;-70
2024/01/02 08:54:09;;;;;;;9.57;5.30;;;;;;;6.09;93.48;96734.72;4920657;29;20043;-69
2024/01/02 08:56:34;;;;;;;7.25;5.20;;;;;;;6.08;92.05;96737.66;4948379;29;20074;-70
2024/01/02 08:59:00;;;;;;;8.40;6.22;;;;;;;6.15;92.18;96730.25;4933846;29;20057;-70
2024/01/02 09:01:26;;;;;;;8.82;6.53;;;;;;;6.11;92.71;96731.81;4952268;29;20031;-70
2024/01/02 09:03:51;;;;;;;8.88;6.40;;;;;;;6.10;92.75;96704.28;4934541;29;20031;-69
2024/01/02 09:06:20;;;;;;;7.03;6.25;;;;;;;6.13;92.44;96713.66;4935859;29;20035;-70
2024/01/02 09:08:46;;;;;;;7.30;5.90;;;;;;;6.23;92.89;96719.09;4936570;29;20063;-70
2024/01/02 09:11:12;;;;;;;9.95;5.93;;;;;;;6.25;93.17;96719.66;4920184;29;20047;-70
2024/01/02 09:13:38;;;;;;;14.82;9.68;;;;;;;6.28;92.43;96721.81;4923479;29;20031;-70
2024/01/02 09:16:03;;;;;;;7.82;6.00;;;;;;;6.20;93.97;96711.59;4933710;29;20034;-70
2024/01/02 09:18:29;;;;;;;11.60;8.48;;;;;;;6.26;92.33;96737.28;4935662;29;20074;-70
2024/01/02 09:20:54;;;;;;;8.52;6.35;;;;;;;6.32;93.40;96722.94;4916960;29;20023;-70
2024/01/02 09:23:20;;;;;;;8.70;6.55;;;;;;;6.33;92.72;96729.06;4935595;29;20035;-70
2024/01/02 09:25:46;;;;;;;10.85;6.47;;;;;;;6.22;93.00;96722.81;4952601;29;20035;-70
2024/01/02 09:28:13;;;;;;;9.50;6.50;;;;;;;6.25;93.35;96720.44;4933829;29;20062;-70
2024/01/02 09:30:39;;;;;;;6.95;6.22;;;;;;;6.27;93.38;96720.22;4931252;29;20443;-70
2024/01/02 09:33:04;;;;;;;11.60;7.90;;;;;;;6.41;92.60;96737.44;4953026;29;20083;-70
2024/01/02 09:35:29;;;;;;;17.52;11.15;;;;;;;6.40;93.68;96741.16;4939237;29;20484;-69
2024/01/02 09:37:55;;;;;;;19.95;12.90;;;;;;;6.24;93.40;96710.81;4933176;29;20179;-70
2024/01/02 09:40:58;;;;;;;22.70;13.52;;;;;;;6.46;92.96;96734.81;4944489;29;20036;-70
2024/01/02 09:43:26;;;;;;;17.42;11.07;;;;;;;6.50;93.54;96735.91;4950405;29;20043;-69
2024/01/02 09:46:14;;;;;;;12.45;9.10;;;;;;;6.49;93.21;96739.66;4947567;28;20031;-69
2024/01/02 09:49:17;;;;;;;8.68;7.32;;;;;;;6.51;93.32;96726.81;4934654;29;20039;-70
2024/01/02 09:51:44;;;;;;;8.80;7.13;;;;;;;6.54;94.61;96731.66;4952450;29;20065;-70
2024/01/02 09:54:43;;;;;;;8.93;6.80;;;;;;;6.49;93.86;96730.84;4929740;29;20023;-69
2024/01/02 09:57:46;;;;;;;7.97;6.93;;;;;;;6.54;94.02;96747.72;4934094;29;20075;-69
2024/01/02 10:00:20;;;;;;;7.22;6.50;;;;;;;6.67;94.26;96744.63;4941688;29;20039;-70
2024/01/02 10:03:07;;;;;;;10.98;8.95;;;;;;;6.56;93.64;96732.22;4931621;29;20071;-69
2024/01/02 10:05:45;;;;;;;8.93;8.00;;;;;;;6.68;93.84;96738.22;4954199;29;20403;-70
2024/01/02 10:08:17;;;;;;;11.48;8.35;;;;;;;6.68;94.75;96732.88;4934103;29;20039;-69
2024/01/02 10:10:48;;;;;;;7.70;6.65;;;;;;;6.73;94.73;96729.41;4954673;29;20059;-69
2024/01/02 10:13:25;;;;;;;8.35;7.05;;;;;;;6.77;94.78;96723.31;4952928;29;20045;-70
2024/01/02 10:16:03;;;;;;;8.13;6.93;;;;;;;6.78;94.62;96716.91;4939360;29;20031;-70
2024/01/02 10:19:00;;;;;;;7.50;6.82;;;;;;;6.78;93.93;96721.44;4933633;29;20119;-70
2024/01/02 10:21:34;;;;;;;6.88;5.78;;;;;;;6.84;94.14;96726.56;4930677;29;20043;-70
2024/01/02 10:24:24;;;;;;;6.55;5.85;;;;;;;6.79;95.73;96718.50;4915191;29;20558;-70
2024/01/02 10:27:15;;;;;;;7.63;6.50;;;;;;;6.79;94.43;96707.78;4943928;29;20508;-70
2024/01/02 10:30:06;;;;;;;7.28;6.00;;;;;;;6.83;95.12;96730.31;4933945;29;20436;-70
2024/01/02 10:32:52;;;;;;;5.43;4.93;;;;;;;6.74;94.76;96713.13;4931476;28;20031;-70
2024/01/02 10:35:41;;;;;;;;;;;;;;;6.65;95.69;96729.91;4937195;29;20039;-70
2024/01/02 10:38:16;;;;;;;5.20;4.80;;;;;;;6.98;95.57;96738.44;4939331;29;20363;-70
2024/01/02 10:40:43;;;;;;;5.03;4.25;;;;;;;7.02;95.57;96732.59;4948778;29;20427;-69
2024/01/02 10:43:30;;;;;;;3.58;3.30;;;;;;;7.02;96.14;96732.59;4938431;29;20793;-70
2024/01/02 10:46:09;;;;;;;6.07;5.47;;;;;;;7.09;95.54;96727.81;4938465;29;20043;-70
2024/01/02 10:49:08;;;;;;;4.95;4.55;;;;;;;7.13;96.00;96728.91;4941651;29;20035;-70
2024/01/02 10:51:38;;;;;;;3.60;3.40;;;;;;;7.15;96.79;96727.56;4931957;29;20046;-70
2024/01/02 10:54:05;;;;;;;3.60;3.30;;;;;;;7.19;96.41;96711.81;4936616;29;20093;-70
2024/01/02 10:57:00;;;;;;;3.90;3.60;;;;;;;7.33;96.50;96720.97;4932661;29;20027;-69
2024/01/02 10:59:32;;;;;;;3.70;3.40;;;;;;;7.35;96.68;96710.84;4947655;29;20392;-69
2024/01/02 11:02:20;;;;;;;3.25;3.05;;;;;;;7.34;96.93;96725.28;4932126;29;20043;-70
2024/01/02 11:05:04;;;;;;;5.75;5.13;;;;;;;7.39;97.57;96711.91;4951548;29;20046;-69
2024/01/02 11:07:34;;;;;;;4.60;4.18;;;;;;;7.49;97.50;96717.34;4953037;29;20051;-70
2024/01/02 11:10:10;;;;;;;3.85;3.50;;;;;;;7.57;97.82;96706.91;4936704;28;20087;-70
2024/01/02 11:13:00;;;;;;;3.78;3.42;;;;;;;7.59;97.46;96701.28;4934451;28;20047;-70
2024/01/02 11:15:27;;;;;;;3.13;2.92;;;;;;;7.70;97.52;96708.31;4942506;29;20406;-72
2024/01/02 11:17:55;;;;;;;3.80;3.50;;;;;;;7.74;96.92;96693.31;4913897;29;20110;-71
2024/01/02 11:20:22;;;;;;;3.53;3.33;;;;;;;7.77;96.97;96698.13;4938876;29;20164;-71
2024/01/02 11:22:55;;;;;;;3.33;3.13;;;;;;;7.75;97.74;96689.56;4933918;29;20054;-72
2024/01/02 11:25:22;;;;;;;4.88;4.47;;;;;;;7.78;97.39;96689.03;4928917;29;20031;-72
2024/01/02 11:27:50;;;;;;;2.83;2.70;;;;;;;7.76;97.04;96680.47;4924246;29;20467;-71
2024/01/02 11:30:16;;;;;;;3.40;3.20;;;;;;;7.83;97.32;96680.22;4921888;29;20039;-72
2024/01/02 11:32:52;;;;;;;3.95;3.65;;;;;;;7.95;97.43;96689.63;4929639;29;20447;-71
2024/01/02 11:35:17;;;;;;;;;;;;;;;7.67;97.01;96679.38;4935023;28;20042;-71
2024/01/02 11:37:50;;;;;;;3.90;3.60;;;;;;;7.88;97.42;96673.00;4936402;29;19965;-70
2024/01/02 11:40:52;;;;;;;4.40;4.00;;;;;;;7.78;96.66;96650.72;4935148;28;20044;-70
2024/01/02 11:43:32;;;;;;;4.85;4.20;;;;;;;7.98;96.60;96656.91;4923856;29;20046;-69